北京 の空港の天気 - METARとTAF

北京首都国際空港 ( ZBAA / PEK ) - 中華人民共和国 北京市
飛行場実況気象(Metar)
観測時間07/21 06:00 CST (07/20 22:00 UTC)
風向・風速不定 1m/s
視程10km以上
天気現象
なし
気温25℃
湿度100%
気圧1004hPa
METARZBAA 202200Z VRB01MPS CAVOK 25/25 Q1004 NOSIG
過去の天気等 Google飛行場航空写真 Wunderground天気予報

過去48時間のMETAR

飛行場予報(TAF)
発表時間: 7/21 02:20 CST (7/20 18:20 UTC)
予報対象時間: 21日2時 CST ~ 22日2時 CST
風向・風速東南東 4m/s
視程2,500m
天気現象弱いしゅう雨
なし
21日2時 CST ~ 21日6時 CST に一時的に
天気現象雷雨
全天の4割程度の積乱雲 雲底高度 1,220m
全天の8割程度の雲 雲底高度 1,220m
21日10時 CST ~ 21日11時 CST に徐々に
視程4,000m
天気現象もや
TAF AMD ZBAA 201820Z 2018/2118 12004MPS 2500 -SHRA NSC TX28/2107Z TN23/2021Z
TEMPO 2018/2022 TSRA SCT040CB BKN040
BECMG 2102/2103 4000 BR